sensor_id;sensor_type;location;lat;lon;timestamp;P1;durP1;ratioP1;P2;durP2;ratioP2
4909;SDS011;2470;49.868;8.660;2022-08-21T00:01:30;11.40;;;2.67;;
4909;SDS011;2470;49.868;8.660;2022-08-21T00:03:56;3.63;;;2.65;;
4909;SDS011;2470;49.868;8.660;2022-08-21T00:06:21;4.10;;;2.25;;
4909;SDS011;2470;49.868;8.660;2022-08-21T00:08:49;3.72;;;2.38;;
4909;SDS011;2470;49.868;8.660;2022-08-21T00:11:17;3.78;;;2.42;;
4909;SDS011;2470;49.868;8.660;2022-08-21T00:13:43;3.45;;;2.45;;
4909;SDS011;2470;49.868;8.660;2022-08-21T00:16:09;7.38;;;2.88;;
4909;SDS011;2470;49.868;8.660;2022-08-21T00:18:35;3.90;;;2.30;;
4909;SDS011;2470;49.868;8.660;2022-08-21T00:21:02;7.03;;;3.40;;
4909;SDS011;2470;49.868;8.660;2022-08-21T00:23:28;3.17;;;2.53;;
4909;SDS011;2470;49.868;8.660;2022-08-21T00:25:53;4.60;;;2.72;;
4909;SDS011;2470;49.868;8.660;2022-08-21T00:28:19;6.28;;;3.45;;
4909;SDS011;2470;49.868;8.660;2022-08-21T00:30:44;6.25;;;2.50;;
4909;SDS011;2470;49.868;8.660;2022-08-21T00:33:10;4.90;;;3.13;;
4909;SDS011;2470;49.868;8.660;2022-08-21T00:35:37;3.85;;;2.65;;
4909;SDS011;2470;49.868;8.660;2022-08-21T00:38:05;3.67;;;2.33;;
4909;SDS011;2470;49.868;8.660;2022-08-21T00:40:41;3.92;;;3.03;;
4909;SDS011;2470;49.868;8.660;2022-08-21T00:43:11;3.05;;;2.15;;
4909;SDS011;2470;49.868;8.660;2022-08-21T00:45:38;5.65;;;2.13;;
4909;SDS011;2470;49.868;8.660;2022-08-21T00:48:04;3.78;;;2.80;;
4909;SDS011;2470;49.868;8.660;2022-08-21T00:50:32;4.63;;;2.00;;
4909;SDS011;2470;49.868;8.660;2022-08-21T00:53:00;3.78;;;2.35;;
4909;SDS011;2470;49.868;8.660;2022-08-21T00:55:27;3.22;;;2.08;;
4909;SDS011;2470;49.868;8.660;2022-08-21T00:57:55;2.90;;;2.40;;
4909;SDS011;2470;49.868;8.660;2022-08-21T01:00:25;2.70;;;1.90;;
4909;SDS011;2470;49.868;8.660;2022-08-21T01:02:54;3.08;;;2.53;;
4909;SDS011;2470;49.868;8.660;2022-08-21T01:05:23;2.35;;;2.08;;
4909;SDS011;2470;49.868;8.660;2022-08-21T01:07:49;6.38;;;1.95;;
4909;SDS011;2470;49.868;8.660;2022-08-21T01:10:15;2.83;;;2.17;;
4909;SDS011;2470;49.868;8.660;2022-08-21T01:12:41;4.07;;;2.13;;
4909;SDS011;2470;49.868;8.660;2022-08-21T01:15:10;3.65;;;2.35;;
4909;SDS011;2470;49.868;8.660;2022-08-21T01:17:40;3.70;;;2.63;;
4909;SDS011;2470;49.868;8.660;2022-08-21T01:20:07;4.63;;;2.50;;
4909;SDS011;2470;49.868;8.660;2022-08-21T01:22:34;2.72;;;2.33;;
4909;SDS011;2470;49.868;8.660;2022-08-21T01:25:00;5.07;;;2.38;;
4909;SDS011;2470;49.868;8.660;2022-08-21T01:27:29;3.97;;;2.25;;
4909;SDS011;2470;49.868;8.660;2022-08-21T01:29:57;3.65;;;2.50;;
4909;SDS011;2470;49.868;8.660;2022-08-21T01:32:24;3.25;;;1.95;;
4909;SDS011;2470;49.868;8.660;2022-08-21T01:34:50;2.38;;;1.92;;
4909;SDS011;2470;49.868;8.660;2022-08-21T01:37:17;3.70;;;2.78;;
4909;SDS011;2470;49.868;8.660;2022-08-21T01:39:44;3.63;;;2.22;;
4909;SDS011;2470;49.868;8.660;2022-08-21T01:42:10;2.53;;;2.05;;
4909;SDS011;2470;49.868;8.660;2022-08-21T01:44:36;4.07;;;2.25;;
4909;SDS011;2470;49.868;8.660;2022-08-21T01:47:02;3.90;;;2.45;;
4909;SDS011;2470;49.868;8.660;2022-08-21T01:49:33;2.45;;;2.20;;
4909;SDS011;2470;49.868;8.660;2022-08-21T01:51:59;3.85;;;2.55;;
4909;SDS011;2470;49.868;8.660;2022-08-21T01:54:25;2.58;;;1.98;;
4909;SDS011;2470;49.868;8.660;2022-08-21T01:56:51;2.40;;;2.10;;
4909;SDS011;2470;49.868;8.660;2022-08-21T01:59:18;2.17;;;1.98;;
4909;SDS011;2470;49.868;8.660;2022-08-21T02:01:44;2.17;;;1.98;;
4909;SDS011;2470;49.868;8.660;2022-08-21T02:04:10;3.97;;;2.42;;
4909;SDS011;2470;49.868;8.660;2022-08-21T02:06:36;2.72;;;1.80;;
4909;SDS011;2470;49.868;8.660;2022-08-21T02:09:06;3.60;;;2.30;;
4909;SDS011;2470;49.868;8.660;2022-08-21T02:11:33;1.88;;;1.67;;
4909;SDS011;2470;49.868;8.660;2022-08-21T02:16:34;1.83;;;1.60;;
4909;SDS011;2470;49.868;8.660;2022-08-21T02:19:00;2.80;;;2.40;;
4909;SDS011;2470;49.868;8.660;2022-08-21T02:21:26;3.58;;;2.47;;
4909;SDS011;2470;49.868;8.660;2022-08-21T02:23:52;2.67;;;2.13;;
4909;SDS011;2470;49.868;8.660;2022-08-21T02:26:17;3.47;;;2.38;;
4909;SDS011;2470;49.868;8.660;2022-08-21T02:28:43;3.08;;;2.05;;
4909;SDS011;2470;49.868;8.660;2022-08-21T02:31:09;2.42;;;2.22;;
4909;SDS011;2470;49.868;8.660;2022-08-21T02:33:35;3.45;;;2.53;;
4909;SDS011;2470;49.868;8.660;2022-08-21T02:36:00;2.78;;;2.17;;
4909;SDS011;2470;49.868;8.660;2022-08-21T02:38:29;3.53;;;2.10;;
4909;SDS011;2470;49.868;8.660;2022-08-21T02:40:58;2.33;;;2.08;;
4909;SDS011;2470;49.868;8.660;2022-08-21T02:43:24;4.40;;;2.08;;
4909;SDS011;2470;49.868;8.660;2022-08-21T02:45:51;2.50;;;2.20;;
4909;SDS011;2470;49.868;8.660;2022-08-21T02:48:20;3.88;;;2.13;;
4909;SDS011;2470;49.868;8.660;2022-08-21T02:50:50;2.25;;;2.05;;
4909;SDS011;2470;49.868;8.660;2022-08-21T02:53:19;2.63;;;2.10;;
4909;SDS011;2470;49.868;8.660;2022-08-21T02:55:45;2.40;;;2.20;;
4909;SDS011;2470;49.868;8.660;2022-08-21T02:58:13;2.50;;;2.20;;
4909;SDS011;2470;49.868;8.660;2022-08-21T03:00:40;6.10;;;2.60;;
4909;SDS011;2470;49.868;8.660;2022-08-21T03:03:06;3.78;;;2.20;;
4909;SDS011;2470;49.868;8.660;2022-08-21T03:05:32;2.75;;;2.55;;
4909;SDS011;2470;49.868;8.660;2022-08-21T03:07:59;4.10;;;3.35;;
4909;SDS011;2470;49.868;8.660;2022-08-21T03:10:26;2.65;;;2.20;;
4909;SDS011;2470;49.868;8.660;2022-08-21T03:12:52;4.85;;;3.25;;
4909;SDS011;2470;49.868;8.660;2022-08-21T03:15:20;2.38;;;2.00;;
4909;SDS011;2470;49.868;8.660;2022-08-21T03:17:48;2.58;;;2.30;;
4909;SDS011;2470;49.868;8.660;2022-08-21T03:20:16;5.05;;;2.50;;
4909;SDS011;2470;49.868;8.660;2022-08-21T03:22:44;2.33;;;2.13;;
4909;SDS011;2470;49.868;8.660;2022-08-21T03:25:09;4.55;;;2.33;;
4909;SDS011;2470;49.868;8.660;2022-08-21T03:27:35;3.17;;;2.25;;
4909;SDS011;2470;49.868;8.660;2022-08-21T03:30:02;2.35;;;1.95;;
4909;SDS011;2470;49.868;8.660;2022-08-21T03:32:30;2.10;;;1.85;;
4909;SDS011;2470;49.868;8.660;2022-08-21T03:34:56;3.92;;;2.22;;
4909;SDS011;2470;49.868;8.660;2022-08-21T03:37:22;4.03;;;2.35;;
4909;SDS011;2470;49.868;8.660;2022-08-21T03:39:49;3.40;;;2.30;;
4909;SDS011;2470;49.868;8.660;2022-08-21T03:42:15;2.38;;;1.90;;
4909;SDS011;2470;49.868;8.660;2022-08-21T03:44:40;2.83;;;2.10;;
4909;SDS011;2470;49.868;8.660;2022-08-21T03:47:06;2.40;;;2.17;;
4909;SDS011;2470;49.868;8.660;2022-08-21T03:49:32;2.60;;;2.08;;
4909;SDS011;2470;49.868;8.660;2022-08-21T03:51:58;3.65;;;2.42;;
4909;SDS011;2470;49.868;8.660;2022-08-21T03:54:24;1.80;;;1.70;;
4909;SDS011;2470;49.868;8.660;2022-08-21T03:56:50;2.10;;;1.90;;
4909;SDS011;2470;49.868;8.660;2022-08-21T03:59:16;2.63;;;2.35;;
4909;SDS011;2470;49.868;8.660;2022-08-21T04:01:55;2.70;;;2.17;;
4909;SDS011;2470;49.868;8.660;2022-08-21T04:04:26;2.50;;;2.05;;
4909;SDS011;2470;49.868;8.660;2022-08-21T04:06:52;2.55;;;2.30;;
4909;SDS011;2470;49.868;8.660;2022-08-21T04:09:18;4.40;;;2.47;;
4909;SDS011;2470;49.868;8.660;2022-08-21T04:11:44;3.28;;;2.00;;
4909;SDS011;2470;49.868;8.660;2022-08-21T04:14:11;1.95;;;1.67;;
4909;SDS011;2470;49.868;8.660;2022-08-21T04:16:38;3.50;;;2.00;;
4909;SDS011;2470;49.868;8.660;2022-08-21T04:19:04;2.38;;;2.00;;
4909;SDS011;2470;49.868;8.660;2022-08-21T04:21:29;4.40;;;2.15;;
4909;SDS011;2470;49.868;8.660;2022-08-21T04:23:56;2.38;;;2.00;;
4909;SDS011;2470;49.868;8.660;2022-08-21T04:26:22;4.10;;;2.45;;
4909;SDS011;2470;49.868;8.660;2022-08-21T04:28:47;2.08;;;1.75;;
4909;SDS011;2470;49.868;8.660;2022-08-21T04:31:13;2.28;;;1.95;;
4909;SDS011;2470;49.868;8.660;2022-08-21T04:33:38;2.53;;;2.33;;
4909;SDS011;2470;49.868;8.660;2022-08-21T04:36:04;2.35;;;1.73;;
4909;SDS011;2470;49.868;8.660;2022-08-21T04:38:31;2.97;;;1.98;;
4909;SDS011;2470;49.868;8.660;2022-08-21T04:40:57;4.20;;;2.45;;
4909;SDS011;2470;49.868;8.660;2022-08-21T04:43:23;2.85;;;1.90;;
4909;SDS011;2470;49.868;8.660;2022-08-21T04:45:49;3.35;;;2.05;;
4909;SDS011;2470;49.868;8.660;2022-08-21T04:48:17;2.40;;;2.10;;
4909;SDS011;2470;49.868;8.660;2022-08-21T04:53:19;2.22;;;1.77;;
4909;SDS011;2470;49.868;8.660;2022-08-21T04:55:49;2.47;;;2.05;;
4909;SDS011;2470;49.868;8.660;2022-08-21T04:58:17;2.25;;;2.05;;
4909;SDS011;2470;49.868;8.660;2022-08-21T05:00:45;2.55;;;2.17;;
4909;SDS011;2470;49.868;8.660;2022-08-21T05:03:12;2.47;;;1.90;;
4909;SDS011;2470;49.868;8.660;2022-08-21T05:05:40;2.75;;;2.17;;
4909;SDS011;2470;49.868;8.660;2022-08-21T05:08:07;3.92;;;2.55;;
4909;SDS011;2470;49.868;8.660;2022-08-21T05:10:37;2.53;;;2.00;;
4909;SDS011;2470;49.868;8.660;2022-08-21T05:13:02;2.42;;;1.85;;
4909;SDS011;2470;49.868;8.660;2022-08-21T05:15:29;2.08;;;1.88;;
4909;SDS011;2470;49.868;8.660;2022-08-21T05:17:55;5.78;;;3.05;;
4909;SDS011;2470;49.868;8.660;2022-08-21T05:20:21;2.50;;;2.10;;
4909;SDS011;2470;49.868;8.660;2022-08-21T05:22:46;3.90;;;2.28;;
4909;SDS011;2470;49.868;8.660;2022-08-21T05:25:12;3.08;;;2.00;;
4909;SDS011;2470;49.868;8.660;2022-08-21T05:27:37;7.10;;;2.40;;
4909;SDS011;2470;49.868;8.660;2022-08-21T05:30:03;2.10;;;1.60;;
4909;SDS011;2470;49.868;8.660;2022-08-21T05:32:33;2.05;;;1.80;;
4909;SDS011;2470;49.868;8.660;2022-08-21T05:34:59;2.65;;;1.92;;
4909;SDS011;2470;49.868;8.660;2022-08-21T05:37:24;2.97;;;2.28;;
4909;SDS011;2470;49.868;8.660;2022-08-21T05:39:50;5.55;;;2.08;;
4909;SDS011;2470;49.868;8.660;2022-08-21T05:42:16;2.45;;;1.60;;
4909;SDS011;2470;49.868;8.660;2022-08-21T05:44:41;3.22;;;1.98;;
4909;SDS011;2470;49.868;8.660;2022-08-21T05:47:08;1.95;;;1.52;;
4909;SDS011;2470;49.868;8.660;2022-08-21T05:49:35;5.00;;;2.03;;
4909;SDS011;2470;49.868;8.660;2022-08-21T05:52:01;3.67;;;2.13;;
4909;SDS011;2470;49.868;8.660;2022-08-21T05:54:27;2.10;;;1.75;;
4909;SDS011;2470;49.868;8.660;2022-08-21T05:56:53;4.68;;;2.00;;
4909;SDS011;2470;49.868;8.660;2022-08-21T05:59:19;2.42;;;2.13;;
4909;SDS011;2470;49.868;8.660;2022-08-21T06:01:45;3.50;;;2.03;;
4909;SDS011;2470;49.868;8.660;2022-08-21T06:04:11;4.30;;;1.98;;
4909;SDS011;2470;49.868;8.660;2022-08-21T06:06:37;4.47;;;1.80;;
4909;SDS011;2470;49.868;8.660;2022-08-21T06:09:03;3.75;;;2.17;;
4909;SDS011;2470;49.868;8.660;2022-08-21T06:11:29;2.47;;;1.50;;
4909;SDS011;2470;49.868;8.660;2022-08-21T06:13:56;3.50;;;2.00;;
4909;SDS011;2470;49.868;8.660;2022-08-21T06:16:21;5.70;;;2.30;;
4909;SDS011;2470;49.868;8.660;2022-08-21T06:18:47;6.07;;;2.70;;
4909;SDS011;2470;49.868;8.660;2022-08-21T06:21:13;9.27;;;2.33;;
4909;SDS011;2470;49.868;8.660;2022-08-21T06:23:39;4.55;;;2.92;;
4909;SDS011;2470;49.868;8.660;2022-08-21T06:26:06;4.45;;;2.40;;
4909;SDS011;2470;49.868;8.660;2022-08-21T06:28:33;2.88;;;2.00;;
4909;SDS011;2470;49.868;8.660;2022-08-21T06:30:59;2.90;;;1.98;;
4909;SDS011;2470;49.868;8.660;2022-08-21T06:33:25;1.88;;;1.70;;
4909;SDS011;2470;49.868;8.660;2022-08-21T06:35:51;2.78;;;1.92;;
4909;SDS011;2470;49.868;8.660;2022-08-21T06:38:16;4.40;;;2.22;;
4909;SDS011;2470;49.868;8.660;2022-08-21T06:40:42;2.55;;;1.50;;
4909;SDS011;2470;49.868;8.660;2022-08-21T06:43:11;6.05;;;2.13;;
4909;SDS011;2470;49.868;8.660;2022-08-21T06:45:39;2.88;;;2.30;;
4909;SDS011;2470;49.868;8.660;2022-08-21T06:48:05;6.20;;;1.85;;
4909;SDS011;2470;49.868;8.660;2022-08-21T06:50:32;3.65;;;2.30;;
4909;SDS011;2470;49.868;8.660;2022-08-21T06:53:05;3.50;;;1.58;;
4909;SDS011;2470;49.868;8.660;2022-08-21T06:55:33;2.45;;;1.95;;
4909;SDS011;2470;49.868;8.660;2022-08-21T06:57:59;1.58;;;1.45;;
4909;SDS011;2470;49.868;8.660;2022-08-21T07:00:25;2.17;;;1.88;;
4909;SDS011;2470;49.868;8.660;2022-08-21T07:02:51;4.03;;;2.15;;
4909;SDS011;2470;49.868;8.660;2022-08-21T07:05:17;4.82;;;1.85;;
4909;SDS011;2470;49.868;8.660;2022-08-21T07:07:42;1.80;;;1.40;;
4909;SDS011;2470;49.868;8.660;2022-08-21T07:10:08;2.40;;;2.10;;
4909;SDS011;2470;49.868;8.660;2022-08-21T07:12:34;6.20;;;2.30;;
4909;SDS011;2470;49.868;8.660;2022-08-21T07:14:59;1.73;;;1.60;;
4909;SDS011;2470;49.868;8.660;2022-08-21T07:17:25;3.97;;;2.30;;
4909;SDS011;2470;49.868;8.660;2022-08-21T07:19:50;1.92;;;1.80;;
4909;SDS011;2470;49.868;8.660;2022-08-21T07:22:17;2.90;;;2.00;;
4909;SDS011;2470;49.868;8.660;2022-08-21T07:24:45;4.82;;;2.45;;
4909;SDS011;2470;49.868;8.660;2022-08-21T07:27:10;3.78;;;2.42;;
4909;SDS011;2470;49.868;8.660;2022-08-21T07:29:36;4.80;;;1.90;;
4909;SDS011;2470;49.868;8.660;2022-08-21T07:32:02;3.05;;;1.52;;
4909;SDS011;2470;49.868;8.660;2022-08-21T07:34:28;5.55;;;2.30;;
4909;SDS011;2470;49.868;8.660;2022-08-21T07:36:53;2.65;;;1.80;;
4909;SDS011;2470;49.868;8.660;2022-08-21T07:39:19;3.75;;;2.65;;
4909;SDS011;2470;49.868;8.660;2022-08-21T07:41:44;4.95;;;3.13;;
4909;SDS011;2470;49.868;8.660;2022-08-21T07:44:10;6.55;;;3.53;;
4909;SDS011;2470;49.868;8.660;2022-08-21T07:46:35;4.93;;;2.72;;
4909;SDS011;2470;49.868;8.660;2022-08-21T07:49:01;4.57;;;3.25;;
4909;SDS011;2470;49.868;8.660;2022-08-21T07:51:27;6.93;;;3.30;;
4909;SDS011;2470;49.868;8.660;2022-08-21T07:53:54;6.82;;;3.30;;
4909;SDS011;2470;49.868;8.660;2022-08-21T07:56:21;6.90;;;3.67;;
4909;SDS011;2470;49.868;8.660;2022-08-21T07:58:47;6.57;;;3.58;;
4909;SDS011;2470;49.868;8.660;2022-08-21T08:01:13;4.22;;;2.60;;
4909;SDS011;2470;49.868;8.660;2022-08-21T08:03:39;3.83;;;2.78;;
4909;SDS011;2470;49.868;8.660;2022-08-21T08:06:05;3.35;;;2.13;;
4909;SDS011;2470;49.868;8.660;2022-08-21T08:08:33;3.25;;;2.85;;
4909;SDS011;2470;49.868;8.660;2022-08-21T08:10:59;1.95;;;1.83;;
4909;SDS011;2470;49.868;8.660;2022-08-21T08:13:26;2.60;;;1.98;;
4909;SDS011;2470;49.868;8.660;2022-08-21T08:15:52;3.08;;;2.08;;
4909;SDS011;2470;49.868;8.660;2022-08-21T08:18:17;2.65;;;1.73;;
4909;SDS011;2470;49.868;8.660;2022-08-21T08:20:43;3.88;;;1.92;;
4909;SDS011;2470;49.868;8.660;2022-08-21T08:23:10;6.53;;;3.08;;
4909;SDS011;2470;49.868;8.660;2022-08-21T08:25:36;3.83;;;2.65;;
4909;SDS011;2470;49.868;8.660;2022-08-21T08:28:03;4.15;;;2.53;;
4909;SDS011;2470;49.868;8.660;2022-08-21T08:30:29;3.53;;;2.35;;
4909;SDS011;2470;49.868;8.660;2022-08-21T08:32:55;2.35;;;2.13;;
4909;SDS011;2470;49.868;8.660;2022-08-21T08:35:21;2.53;;;2.15;;
4909;SDS011;2470;49.868;8.660;2022-08-21T08:37:47;3.63;;;2.70;;
4909;SDS011;2470;49.868;8.660;2022-08-21T08:40:21;3.13;;;2.47;;
4909;SDS011;2470;49.868;8.660;2022-08-21T08:42:55;5.32;;;2.38;;
4909;SDS011;2470;49.868;8.660;2022-08-21T08:45:20;4.70;;;2.55;;
4909;SDS011;2470;49.868;8.660;2022-08-21T08:47:51;3.15;;;2.10;;
4909;SDS011;2470;49.868;8.660;2022-08-21T08:50:25;3.22;;;2.67;;
4909;SDS011;2470;49.868;8.660;2022-08-21T08:53:15;3.10;;;2.20;;
4909;SDS011;2470;49.868;8.660;2022-08-21T08:55:47;2.67;;;2.30;;
4909;SDS011;2470;49.868;8.660;2022-08-21T08:58:17;5.47;;;2.60;;
4909;SDS011;2470;49.868;8.660;2022-08-21T09:00:49;4.13;;;2.90;;
4909;SDS011;2470;49.868;8.660;2022-08-21T09:03:17;2.65;;;2.45;;
4909;SDS011;2470;49.868;8.660;2022-08-21T09:05:47;4.47;;;2.40;;
4909;SDS011;2470;49.868;8.660;2022-08-21T09:08:27;3.55;;;2.60;;
4909;SDS011;2470;49.868;8.660;2022-08-21T09:11:28;3.28;;;2.40;;
4909;SDS011;2470;49.868;8.660;2022-08-21T09:14:06;3.67;;;2.60;;
4909;SDS011;2470;49.868;8.660;2022-08-21T09:17:00;2.75;;;1.92;;
4909;SDS011;2470;49.868;8.660;2022-08-21T09:19:25;1.70;;;1.48;;
4909;SDS011;2470;49.868;8.660;2022-08-21T09:22:04;3.05;;;1.98;;
4909;SDS011;2470;49.868;8.660;2022-08-21T09:27:35;2.50;;;1.23;;
4909;SDS011;2470;49.868;8.660;2022-08-21T09:30:02;1.67;;;1.50;;
4909;SDS011;2470;49.868;8.660;2022-08-21T09:32:30;3.00;;;1.80;;
4909;SDS011;2470;49.868;8.660;2022-08-21T09:35:16;3.33;;;2.15;;
4909;SDS011;2470;49.868;8.660;2022-08-21T09:37:52;3.40;;;1.98;;
4909;SDS011;2470;49.868;8.660;2022-08-21T09:40:38;4.50;;;2.00;;
4909;SDS011;2470;49.868;8.660;2022-08-21T09:45:36;2.25;;;1.52;;
4909;SDS011;2470;49.868;8.660;2022-08-21T09:48:08;2.42;;;1.80;;
4909;SDS011;2470;49.868;8.660;2022-08-21T09:50:35;2.35;;;2.10;;
4909;SDS011;2470;49.868;8.660;2022-08-21T09:53:00;2.53;;;1.67;;
4909;SDS011;2470;49.868;8.660;2022-08-21T09:55:39;2.90;;;1.80;;
4909;SDS011;2470;49.868;8.660;2022-08-21T09:58:32;2.00;;;1.67;;
4909;SDS011;2470;49.868;8.660;2022-08-21T10:01:00;2.25;;;1.90;;
4909;SDS011;2470;49.868;8.660;2022-08-21T10:03:27;2.75;;;1.70;;
4909;SDS011;2470;49.868;8.660;2022-08-21T10:06:38;9.77;;;1.90;;
4909;SDS011;2470;49.868;8.660;2022-08-21T10:08:49;3.00;;;1.70;;
4909;SDS011;2470;49.868;8.660;2022-08-21T10:11:15;1.70;;;1.60;;
4909;SDS011;2470;49.868;8.660;2022-08-21T10:25:00;2.40;;;1.52;;
4909;SDS011;2470;49.868;8.660;2022-08-21T10:30:19;2.15;;;1.27;;
4909;SDS011;2470;49.868;8.660;2022-08-21T10:41:32;4.85;;;1.75;;
4909;SDS011;2470;49.868;8.660;2022-08-21T10:44:14;2.97;;;1.95;;
4909;SDS011;2470;49.868;8.660;2022-08-21T10:46:52;1.88;;;1.33;;
4909;SDS011;2470;49.868;8.660;2022-08-21T10:52:25;3.72;;;1.52;;
4909;SDS011;2470;49.868;8.660;2022-08-21T10:55:21;1.50;;;1.40;;
4909;SDS011;2470;49.868;8.660;2022-08-21T11:01:09;1.70;;;1.60;;
4909;SDS011;2470;49.868;8.660;2022-08-21T11:03:21;4.97;;;1.40;;
4909;SDS011;2470;49.868;8.660;2022-08-21T11:05:54;1.30;;;1.20;;
4909;SDS011;2470;49.868;8.660;2022-08-21T11:08:40;3.67;;;1.63;;
4909;SDS011;2470;49.868;8.660;2022-08-21T11:11:10;1.80;;;1.50;;
4909;SDS011;2470;49.868;8.660;2022-08-21T11:13:47;2.72;;;1.65;;
4909;SDS011;2470;49.868;8.660;2022-08-21T11:19:30;3.25;;;1.63;;
4909;SDS011;2470;49.868;8.660;2022-08-21T11:22:18;3.38;;;1.45;;
4909;SDS011;2470;49.868;8.660;2022-08-21T11:24:56;2.63;;;1.50;;
4909;SDS011;2470;49.868;8.660;2022-08-21T11:27:33;2.63;;;2.10;;
4909;SDS011;2470;49.868;8.660;2022-08-21T11:30:05;4.95;;;2.13;;
4909;SDS011;2470;49.868;8.660;2022-08-21T11:32:44;1.98;;;1.63;;
4909;SDS011;2470;49.868;8.660;2022-08-21T11:45:43;2.40;;;1.88;;
4909;SDS011;2470;49.868;8.660;2022-08-21T11:50:59;2.85;;;1.73;;
4909;SDS011;2470;49.868;8.660;2022-08-21T11:56:32;1.88;;;1.50;;
4909;SDS011;2470;49.868;8.660;2022-08-21T11:59:05;2.28;;;1.40;;
4909;SDS011;2470;49.868;8.660;2022-08-21T12:01:39;1.58;;;1.48;;
4909;SDS011;2470;49.868;8.660;2022-08-21T12:04:22;1.52;;;1.42;;
4909;SDS011;2470;49.868;8.660;2022-08-21T12:06:52;1.77;;;1.27;;
4909;SDS011;2470;49.868;8.660;2022-08-21T12:12:01;4.00;;;1.48;;
4909;SDS011;2470;49.868;8.660;2022-08-21T12:14:44;3.38;;;2.05;;
4909;SDS011;2470;49.868;8.660;2022-08-21T12:17:52;1.67;;;1.58;;
4909;SDS011;2470;49.868;8.660;2022-08-21T12:20:18;3.63;;;2.60;;
4909;SDS011;2470;49.868;8.660;2022-08-21T12:25:39;4.35;;;1.67;;
4909;SDS011;2470;49.868;8.660;2022-08-21T12:28:08;2.05;;;1.70;;
4909;SDS011;2470;49.868;8.660;2022-08-21T12:30:37;3.20;;;1.67;;
4909;SDS011;2470;49.868;8.660;2022-08-21T12:33:17;2.67;;;1.50;;
4909;SDS011;2470;49.868;8.660;2022-08-21T12:35:46;1.52;;;1.42;;
4909;SDS011;2470;49.868;8.660;2022-08-21T12:38:21;1.40;;;1.02;;
4909;SDS011;2470;49.868;8.660;2022-08-21T12:40:55;1.55;;;1.25;;
4909;SDS011;2470;49.868;8.660;2022-08-21T12:43:25;1.23;;;1.13;;
4909;SDS011;2470;49.868;8.660;2022-08-21T12:45:56;0.90;;;0.90;;
4909;SDS011;2470;49.868;8.660;2022-08-21T12:48:26;1.40;;;1.20;;
4909;SDS011;2470;49.868;8.660;2022-08-21T12:51:17;0.80;;;0.80;;
4909;SDS011;2470;49.868;8.660;2022-08-21T12:53:57;1.08;;;1.08;;
4909;SDS011;2470;49.868;8.660;2022-08-21T12:56:24;4.80;;;1.02;;
4909;SDS011;2470;49.868;8.660;2022-08-21T12:58:54;1.40;;;1.30;;
4909;SDS011;2470;49.868;8.660;2022-08-21T13:01:37;1.27;;;1.17;;
4909;SDS011;2470;49.868;8.660;2022-08-21T13:04:12;1.40;;;0.90;;
4909;SDS011;2470;49.868;8.660;2022-08-21T13:06:43;0.70;;;0.70;;
4909;SDS011;2470;49.868;8.660;2022-08-21T13:09:15;1.10;;;1.10;;
4909;SDS011;2470;49.868;8.660;2022-08-21T13:11:43;0.90;;;0.90;;
4909;SDS011;2470;49.868;8.660;2022-08-21T13:16:55;1.00;;;1.00;;
4909;SDS011;2470;49.868;8.660;2022-08-21T13:19:22;0.98;;;0.95;;
4909;SDS011;2470;49.868;8.660;2022-08-21T13:21:49;1.10;;;1.00;;
4909;SDS011;2470;49.868;8.660;2022-08-21T13:24:21;1.10;;;0.93;;
4909;SDS011;2470;49.868;8.660;2022-08-21T13:26:54;1.10;;;1.08;;
4909;SDS011;2470;49.868;8.660;2022-08-21T13:29:21;0.95;;;0.90;;
4909;SDS011;2470;49.868;8.660;2022-08-21T13:31:51;0.90;;;0.90;;
4909;SDS011;2470;49.868;8.660;2022-08-21T13:34:19;0.82;;;0.80;;
4909;SDS011;2470;49.868;8.660;2022-08-21T13:36:47;1.15;;;1.15;;
4909;SDS011;2470;49.868;8.660;2022-08-21T13:39:16;0.88;;;0.80;;
4909;SDS011;2470;49.868;8.660;2022-08-21T13:41:44;0.80;;;0.80;;
4909;SDS011;2470;49.868;8.660;2022-08-21T13:44:17;1.65;;;1.35;;
4909;SDS011;2470;49.868;8.660;2022-08-21T13:46:47;4.93;;;0.80;;
4909;SDS011;2470;49.868;8.660;2022-08-21T13:49:15;1.55;;;1.45;;
4909;SDS011;2470;49.868;8.660;2022-08-21T13:51:43;1.45;;;1.27;;
4909;SDS011;2470;49.868;8.660;2022-08-21T13:54:14;1.00;;;1.00;;
4909;SDS011;2470;49.868;8.660;2022-08-21T13:56:45;2.63;;;1.50;;
4909;SDS011;2470;49.868;8.660;2022-08-21T13:59:11;1.40;;;1.30;;
4909;SDS011;2470;49.868;8.660;2022-08-21T14:01:58;0.80;;;0.80;;
4909;SDS011;2470;49.868;8.660;2022-08-21T14:04:30;0.90;;;0.90;;
4909;SDS011;2470;49.868;8.660;2022-08-21T14:06:59;0.73;;;0.73;;
4909;SDS011;2470;49.868;8.660;2022-08-21T14:09:28;0.88;;;0.88;;
4909;SDS011;2470;49.868;8.660;2022-08-21T14:11:59;1.02;;;0.90;;
4909;SDS011;2470;49.868;8.660;2022-08-21T14:14:35;1.10;;;1.10;;
4909;SDS011;2470;49.868;8.660;2022-08-21T14:17:05;1.02;;;0.90;;
4909;SDS011;2470;49.868;8.660;2022-08-21T14:19:38;1.10;;;0.82;;
4909;SDS011;2470;49.868;8.660;2022-08-21T14:22:21;1.05;;;0.90;;
4909;SDS011;2470;49.868;8.660;2022-08-21T14:25:26;2.15;;;1.17;;
4909;SDS011;2470;49.868;8.660;2022-08-21T14:28:19;0.75;;;0.75;;
4909;SDS011;2470;49.868;8.660;2022-08-21T14:30:45;1.10;;;1.10;;
4909;SDS011;2470;49.868;8.660;2022-08-21T14:33:12;0.80;;;0.80;;
4909;SDS011;2470;49.868;8.660;2022-08-21T14:35:43;1.23;;;1.13;;
4909;SDS011;2470;49.868;8.660;2022-08-21T14:38:13;1.92;;;0.93;;
4909;SDS011;2470;49.868;8.660;2022-08-21T14:40:41;0.80;;;0.80;;
4909;SDS011;2470;49.868;8.660;2022-08-21T14:43:08;1.75;;;0.80;;
4909;SDS011;2470;49.868;8.660;2022-08-21T14:45:34;2.00;;;0.70;;
4909;SDS011;2470;49.868;8.660;2022-08-21T14:48:01;0.90;;;0.90;;
4909;SDS011;2470;49.868;8.660;2022-08-21T14:50:27;0.80;;;0.80;;
4909;SDS011;2470;49.868;8.660;2022-08-21T14:52:53;1.00;;;0.90;;
4909;SDS011;2470;49.868;8.660;2022-08-21T14:55:19;0.70;;;0.70;;
4909;SDS011;2470;49.868;8.660;2022-08-21T14:57:45;0.90;;;0.90;;
4909;SDS011;2470;49.868;8.660;2022-08-21T15:00:16;0.70;;;0.70;;
4909;SDS011;2470;49.868;8.660;2022-08-21T15:02:44;1.02;;;0.90;;
4909;SDS011;2470;49.868;8.660;2022-08-21T15:05:10;4.32;;;1.02;;
4909;SDS011;2470;49.868;8.660;2022-08-21T15:07:37;0.73;;;0.73;;
4909;SDS011;2470;49.868;8.660;2022-08-21T15:10:03;4.63;;;0.88;;
4909;SDS011;2470;49.868;8.660;2022-08-21T15:12:29;1.17;;;0.93;;
4909;SDS011;2470;49.868;8.660;2022-08-21T15:14:55;0.80;;;0.80;;
4909;SDS011;2470;49.868;8.660;2022-08-21T15:17:21;2.00;;;0.80;;
4909;SDS011;2470;49.868;8.660;2022-08-21T15:19:47;0.70;;;0.70;;
4909;SDS011;2470;49.868;8.660;2022-08-21T15:22:12;0.82;;;0.82;;
4909;SDS011;2470;49.868;8.660;2022-08-21T15:24:38;1.42;;;1.15;;
4909;SDS011;2470;49.868;8.660;2022-08-21T15:27:04;1.25;;;1.00;;
4909;SDS011;2470;49.868;8.660;2022-08-21T15:29:32;1.30;;;1.20;;
4909;SDS011;2470;49.868;8.660;2022-08-21T15:31:59;1.92;;;1.20;;
4909;SDS011;2470;49.868;8.660;2022-08-21T15:34:42;1.23;;;1.13;;
4909;SDS011;2470;49.868;8.660;2022-08-21T15:37:08;1.20;;;1.10;;
4909;SDS011;2470;49.868;8.660;2022-08-21T15:39:34;2.70;;;1.30;;
4909;SDS011;2470;49.868;8.660;2022-08-21T15:42:01;2.75;;;1.48;;
4909;SDS011;2470;49.868;8.660;2022-08-21T15:44:28;1.52;;;1.13;;
4909;SDS011;2470;49.868;8.660;2022-08-21T15:46:54;1.15;;;1.02;;
4909;SDS011;2470;49.868;8.660;2022-08-21T15:49:20;1.70;;;1.23;;
4909;SDS011;2470;49.868;8.660;2022-08-21T15:51:46;1.20;;;1.10;;
4909;SDS011;2470;49.868;8.660;2022-08-21T15:54:12;1.25;;;1.15;;
4909;SDS011;2470;49.868;8.660;2022-08-21T15:56:38;1.08;;;1.08;;
4909;SDS011;2470;49.868;8.660;2022-08-21T15:59:12;2.53;;;1.42;;
4909;SDS011;2470;49.868;8.660;2022-08-21T16:01:40;1.65;;;1.55;;
4909;SDS011;2470;49.868;8.660;2022-08-21T16:04:06;1.83;;;1.20;;
4909;SDS011;2470;49.868;8.660;2022-08-21T16:06:33;1.63;;;1.45;;
4909;SDS011;2470;49.868;8.660;2022-08-21T16:08:58;0.93;;;0.90;;
4909;SDS011;2470;49.868;8.660;2022-08-21T16:11:27;1.05;;;1.05;;
4909;SDS011;2470;49.868;8.660;2022-08-21T16:13:53;1.30;;;1.20;;
4909;SDS011;2470;49.868;8.660;2022-08-21T16:16:20;1.40;;;1.30;;
4909;SDS011;2470;49.868;8.660;2022-08-21T16:18:47;1.40;;;1.30;;
4909;SDS011;2470;49.868;8.660;2022-08-21T16:21:14;1.58;;;1.48;;
4909;SDS011;2470;49.868;8.660;2022-08-21T16:23:40;2.67;;;1.27;;
4909;SDS011;2470;49.868;8.660;2022-08-21T16:26:06;1.58;;;1.40;;
4909;SDS011;2470;49.868;8.660;2022-08-21T16:28:34;2.15;;;1.33;;
4909;SDS011;2470;49.868;8.660;2022-08-21T16:31:03;1.33;;;1.02;;
4909;SDS011;2470;49.868;8.660;2022-08-21T16:35:59;2.65;;;1.30;;